createdAt,value
2017-04-08T00:01:17.939Z,0
2017-04-08T00:02:17.606Z,0
2017-04-08T00:03:17.537Z,0
2017-04-08T00:04:17.466Z,0
2017-04-08T00:05:17.409Z,0
2017-04-08T00:06:17.343Z,0
2017-04-08T00:07:17.291Z,0
2017-04-08T00:08:17.213Z,0
2017-04-08T00:09:17.156Z,0
2017-04-08T00:10:17.096Z,0
2017-04-08T00:11:17.278Z,0
2017-04-08T00:12:16.968Z,0
2017-04-08T00:13:16.605Z,0
2017-04-08T00:14:16.846Z,0
2017-04-08T00:15:16.784Z,0
2017-04-08T00:16:16.660Z,0
2017-04-08T00:17:16.354Z,0
2017-04-08T00:18:16.596Z,0
2017-04-08T00:19:16.525Z,0
2017-04-08T00:20:16.461Z,0
2017-04-08T00:21:16.360Z,0
2017-04-08T00:22:16.340Z,0
2017-04-08T00:23:16.275Z,0
2017-04-08T00:24:16.227Z,0
2017-04-08T00:25:16.152Z,0
2017-04-08T00:26:16.087Z,0
2017-04-08T00:27:16.030Z,0
2017-04-08T00:28:15.962Z,0
2017-04-08T00:29:15.599Z,0
2017-04-08T00:30:15.843Z,0
2017-04-08T00:31:15.777Z,0
2017-04-08T00:32:15.712Z,0
2017-04-08T00:33:15.656Z,0
2017-04-08T00:34:15.610Z,0
2017-04-08T00:35:15.530Z,0
2017-04-08T00:36:15.468Z,0
2017-04-08T00:37:15.551Z,0
2017-04-08T00:38:15.337Z,0
2017-04-08T00:39:15.281Z,0
2017-04-08T00:40:15.223Z,0
2017-04-08T00:41:15.158Z,0
2017-04-08T00:42:15.086Z,0
2017-04-08T00:43:15.028Z,0
2017-04-08T00:44:14.966Z,0
2017-04-08T00:45:14.903Z,0
2017-04-08T00:46:14.840Z,0
2017-04-08T00:47:14.778Z,0
2017-04-08T00:48:14.713Z,0
2017-04-08T00:49:14.656Z,0
2017-04-08T00:50:14.588Z,0
2017-04-08T00:51:14.533Z,0
2017-04-08T00:52:14.470Z,0
2017-04-08T00:53:14.616Z,0
2017-04-08T00:54:14.347Z,0
2017-04-08T00:55:14.309Z,0
2017-04-08T00:56:14.215Z,0
2017-04-08T00:57:14.149Z,0
2017-04-08T00:58:14.099Z,0
2017-04-08T00:59:14.031Z,0
2017-04-08T01:00:13.962Z,0
2017-04-08T01:01:13.903Z,0
2017-04-08T01:02:13.840Z,0
2017-04-08T01:03:13.774Z,0
2017-04-08T01:04:13.413Z,0
2017-04-08T01:05:13.657Z,0
2017-04-08T01:06:13.286Z,0
2017-04-08T01:07:13.525Z,0
2017-04-08T01:08:13.718Z,0
2017-04-08T01:09:13.407Z,0
2017-04-08T01:10:13.037Z,0
2017-04-08T01:11:13.270Z,0
2017-04-08T01:12:13.215Z,0
2017-04-08T01:13:13.154Z,0
2017-04-08T01:14:13.089Z,0
2017-04-08T01:15:13.027Z,0
2017-04-08T01:16:12.655Z,0
2017-04-08T01:17:12.902Z,0
2017-04-08T01:18:12.532Z,0
2017-04-08T01:19:12.788Z,0
2017-04-08T01:20:12.414Z,0
2017-04-08T01:21:12.659Z,0
2017-04-08T01:22:12.587Z,0
2017-04-08T01:23:11.918Z,0
2017-04-08T01:24:12.461Z,0
2017-04-08T01:25:12.399Z,0
2017-04-08T01:26:12.036Z,0
2017-04-08T01:27:12.277Z,0
2017-04-08T01:28:12.206Z,0
2017-04-08T01:29:12.148Z,0
2017-04-08T01:30:12.087Z,0
2017-04-08T01:31:12.025Z,0
2017-04-08T01:32:11.960Z,0
2017-04-08T01:33:11.895Z,0
2017-04-08T01:34:11.834Z,0
2017-04-08T01:35:11.778Z,0
2017-04-08T01:36:11.711Z,0
2017-04-08T01:37:11.658Z,0
2017-04-08T01:38:11.283Z,0
2017-04-08T01:39:11.518Z,0
2017-04-08T01:40:11.468Z,0
2017-04-08T01:41:10.795Z,0
2017-04-08T01:42:11.358Z,0
2017-04-08T01:43:11.299Z,0
2017-04-08T01:44:11.210Z,0
2017-04-08T01:45:10.849Z,0
2017-04-08T01:46:10.790Z,0
2017-04-08T01:47:10.723Z,0
2017-04-08T01:48:10.660Z,0
2017-04-08T01:49:10.896Z,0
2017-04-08T01:50:10.832Z,0
2017-04-08T01:51:10.778Z,0
2017-04-08T01:52:10.706Z,0
2017-04-08T01:53:10.653Z,0
2017-04-08T01:54:10.591Z,0
2017-04-08T01:55:10.220Z,0
2017-04-08T01:56:10.161Z,0
2017-04-08T01:57:10.398Z,0
2017-04-08T01:58:10.334Z,0
2017-04-08T01:59:10.289Z,0
2017-04-08T02:00:10.214Z,0
2017-04-08T02:01:10.148Z,0
2017-04-08T02:02:10.088Z,0
2017-04-08T02:03:10.022Z,0
2017-04-08T02:04:09.362Z,0
2017-04-08T02:05:09.899Z,0
2017-04-08T02:06:09.531Z,0
2017-04-08T02:07:09.777Z,0
2017-04-08T02:08:09.713Z,0
2017-04-08T02:09:09.352Z,0
2017-04-08T02:10:09.590Z,0
2017-04-08T02:11:09.526Z,0
2017-04-08T02:12:09.463Z,0
2017-04-08T02:13:09.400Z,0
2017-04-08T02:14:09.033Z,0
2017-04-08T02:15:09.274Z,0
2017-04-08T02:16:09.213Z,0
2017-04-08T02:17:08.842Z,0
2017-04-08T02:18:09.080Z,0
2017-04-08T02:19:09.026Z,0
2017-04-08T02:20:08.962Z,0
2017-04-08T02:21:08.899Z,0
2017-04-08T02:22:08.836Z,0
2017-04-08T02:23:08.778Z,0
2017-04-08T02:24:08.712Z,0
2017-04-08T02:25:08.648Z,0
2017-04-08T02:26:08.610Z,0
2017-04-08T02:27:08.225Z,0
2017-04-08T02:28:08.464Z,0
2017-04-08T02:29:08.396Z,0
2017-04-08T02:30:08.376Z,0
2017-04-08T02:31:07.974Z,0
2017-04-08T02:32:08.212Z,0
2017-04-08T02:33:08.149Z,0
2017-04-08T02:34:08.088Z,0
2017-04-08T02:35:07.725Z,0
2017-04-08T02:36:07.965Z,0
2017-04-08T02:37:07.894Z,0
2017-04-08T02:38:07.541Z,0
2017-04-08T02:39:07.766Z,0
2017-04-08T02:40:07.709Z,0
2017-04-08T02:41:07.647Z,0
2017-04-08T02:42:07.583Z,0
2017-04-08T02:43:07.516Z,0
2017-04-08T02:44:07.457Z,0
2017-04-08T02:45:07.392Z,0
2017-04-08T02:46:07.332Z,0
2017-04-08T02:47:07.275Z,0
2017-04-08T02:48:07.209Z,0
2017-04-08T02:49:07.145Z,0
2017-04-08T02:50:07.081Z,0
2017-04-08T02:51:07.021Z,0
2017-04-08T02:52:06.976Z,0
2017-04-08T02:53:06.902Z,0
2017-04-08T02:54:06.832Z,0
2017-04-08T02:55:06.917Z,0
2017-04-08T02:56:06.707Z,0
2017-04-08T02:57:06.647Z,0
2017-04-08T02:58:06.589Z,0
2017-04-08T02:59:06.521Z,0
2017-04-08T03:00:06.557Z,0
2017-04-08T03:01:06.397Z,0
2017-04-08T03:02:06.030Z,0
2017-04-08T03:03:06.273Z,0
2017-04-08T03:04:06.213Z,0
2017-04-08T03:05:05.543Z,0
2017-04-08T03:06:06.079Z,0
2017-04-08T03:07:06.014Z,0
2017-04-08T03:08:05.959Z,0
2017-04-08T03:09:05.895Z,0
2017-04-08T03:10:05.838Z,0
2017-04-08T03:11:05.776Z,0
2017-04-08T03:12:05.710Z,0
2017-04-08T03:13:05.645Z,0
2017-04-08T03:14:05.585Z,0
2017-04-08T03:15:05.518Z,0
2017-04-08T03:16:05.488Z,0
2017-04-08T03:17:05.089Z,0
2017-04-08T03:18:05.330Z,0
2017-04-08T03:19:05.271Z,0
2017-04-08T03:20:05.210Z,0
2017-04-08T03:21:05.146Z,0
2017-04-08T03:22:05.084Z,0
2017-04-08T03:23:05.023Z,0
2017-04-08T03:24:04.956Z,0
2017-04-08T03:25:04.894Z,0
2017-04-08T03:26:04.833Z,0
2017-04-08T03:27:04.772Z,0
2017-04-08T03:28:04.706Z,0
2017-04-08T03:29:04.643Z,0
2017-04-08T03:30:04.582Z,0
2017-04-08T03:31:04.527Z,0
2017-04-08T03:32:04.457Z,0
2017-04-08T03:33:04.091Z,0
2017-04-08T03:34:04.337Z,0
2017-04-08T03:35:04.268Z,0
2017-04-08T03:36:04.210Z,0
2017-04-08T03:37:04.144Z,0
2017-04-08T03:38:04.102Z,0
2017-04-08T03:39:04.044Z,0
2017-04-08T03:40:03.952Z,0
2017-04-08T03:41:03.935Z,0
2017-04-08T03:42:03.823Z,0
2017-04-08T03:43:03.771Z,0
2017-04-08T03:44:03.703Z,0
2017-04-08T03:45:03.338Z,0
2017-04-08T03:46:03.295Z,0
2017-04-08T03:47:03.513Z,0
2017-04-08T03:48:03.452Z,0
2017-04-08T03:49:03.391Z,0
2017-04-08T03:50:03.331Z,0
2017-04-08T03:51:02.969Z,0
2017-04-08T03:52:03.213Z,0
2017-04-08T03:53:03.155Z,0
2017-04-08T03:54:03.084Z,0
2017-04-08T03:55:02.718Z,0
2017-04-08T03:56:02.953Z,0
2017-04-08T03:57:02.901Z,0
2017-04-08T03:58:02.829Z,0
2017-04-08T03:59:02.773Z,0
2017-04-08T04:00:02.720Z,0
2017-04-08T04:01:02.645Z,0
2017-04-08T04:02:02.577Z,0
2017-04-08T04:03:02.518Z,0
2017-04-08T04:04:02.461Z,0
2017-04-08T04:05:02.390Z,0
2017-04-08T04:06:02.336Z,0
2017-04-08T04:07:02.269Z,0
2017-04-08T04:08:02.212Z,0
2017-04-08T04:09:02.147Z,0
2017-04-08T04:10:02.083Z,0
2017-04-08T04:11:01.728Z,0
2017-04-08T04:12:01.955Z,0
2017-04-08T04:13:01.892Z,0
2017-04-08T04:14:01.826Z,0
2017-04-08T04:15:01.769Z,0
2017-04-08T04:16:01.701Z,0
2017-04-08T04:17:01.642Z,0
2017-04-08T04:18:01.587Z,0
2017-04-08T04:19:01.519Z,0
2017-04-08T04:20:01.456Z,0
2017-04-08T04:21:01.392Z,0
2017-04-08T04:22:01.363Z,0
2017-04-08T04:23:01.268Z,0
2017-04-08T04:24:01.205Z,0
2017-04-08T04:25:01.156Z,0
2017-04-08T04:26:01.081Z,0
2017-04-08T04:27:01.015Z,0
2017-04-08T04:28:00.954Z,0
2017-04-08T04:29:00.891Z,0
2017-04-08T04:30:00.822Z,0
2017-04-08T04:31:00.463Z,0
2017-04-08T04:32:00.397Z,0
2017-04-08T04:33:00.639Z,0
2017-04-08T04:34:00.582Z,0
2017-04-08T04:35:00.515Z,0
2017-04-08T04:36:00.452Z,0
2017-04-08T04:37:00.090Z,0
2017-04-08T04:38:00.326Z,0
2017-04-08T04:39:00.261Z,0
2017-04-08T04:40:00.198Z,0
2017-04-08T04:40:59.833Z,0
2017-04-08T04:42:00.079Z,0
2017-04-08T04:43:00.011Z,0
2017-04-08T04:43:59.952Z,0
2017-04-08T04:44:59.891Z,0
2017-04-08T04:45:59.824Z,0
2017-04-08T04:46:59.763Z,0
2017-04-08T04:47:59.701Z,0
2017-04-08T04:48:59.641Z,0
2017-04-08T04:49:59.589Z,0
2017-04-08T04:50:59.215Z,0
2017-04-08T04:51:59.455Z,0
2017-04-08T04:52:59.392Z,0
2017-04-08T04:53:59.335Z,0
2017-04-08T04:54:59.266Z,0
2017-04-08T04:55:59.209Z,0
2017-04-08T04:56:59.138Z,0
2017-04-08T04:57:59.080Z,0
2017-04-08T04:58:59.020Z,0
2017-04-08T04:59:58.659Z,0
2017-04-08T05:00:58.893Z,0
2017-04-08T05:01:58.836Z,0
2017-04-08T05:02:58.763Z,0
2017-04-08T05:03:58.701Z,0
2017-04-08T05:04:58.642Z,0
2017-04-08T05:05:58.578Z,0
2017-04-08T05:06:58.514Z,4
2017-04-08T05:07:58.455Z,4
2017-04-08T05:08:58.101Z,4
2017-04-08T05:09:58.324Z,4
2017-04-08T05:10:58.261Z,4
2017-04-08T05:11:57.900Z,4
2017-04-08T05:12:57.831Z,4
2017-04-08T05:13:58.077Z,4
2017-04-08T05:14:57.713Z,4
2017-04-08T05:15:57.951Z,4
2017-04-08T05:16:57.901Z,4
2017-04-08T05:17:57.828Z,4
2017-04-08T05:18:57.789Z,4
2017-04-08T05:19:57.713Z,4
2017-04-08T05:20:57.637Z,4
2017-04-08T05:21:57.572Z,4
2017-04-08T05:22:57.220Z,4
2017-04-08T05:23:57.455Z,4
2017-04-08T05:24:57.392Z,4
2017-04-08T05:25:57.324Z,4
2017-04-08T05:26:56.963Z,4
2017-04-08T05:27:56.899Z,4
2017-04-08T05:28:57.139Z,4
2017-04-08T05:29:57.075Z,4
2017-04-08T05:30:57.012Z,4
2017-04-08T05:31:56.650Z,4
2017-04-08T05:32:56.883Z,4
2017-04-08T05:33:56.820Z,4
2017-04-08T05:34:56.764Z,4
2017-04-08T05:35:56.697Z,4
2017-04-08T05:36:56.635Z,4
2017-04-08T05:37:56.573Z,4
2017-04-08T05:38:56.517Z,4
2017-04-08T05:39:56.450Z,4
2017-04-08T05:40:56.397Z,4
2017-04-08T05:41:56.324Z,4
2017-04-08T05:42:56.267Z,4
2017-04-08T05:43:56.202Z,4
2017-04-08T05:44:56.134Z,8
2017-04-08T05:45:56.068Z,4
2017-04-08T05:46:56.051Z,8
2017-04-08T05:47:55.950Z,8
2017-04-08T05:48:55.889Z,4
2017-04-08T05:49:55.822Z,4
2017-04-08T05:50:55.758Z,4
2017-04-08T05:51:55.695Z,8
2017-04-08T05:52:55.640Z,8
2017-04-08T05:53:55.599Z,8
2017-04-08T05:54:55.509Z,8
2017-04-08T05:55:55.447Z,8
2017-04-08T05:56:55.394Z,8
2017-04-08T05:57:55.322Z,4
2017-04-08T05:58:55.255Z,4
2017-04-08T05:59:55.203Z,4
2017-04-08T06:00:55.130Z,4
2017-04-08T06:01:55.067Z,4
2017-04-08T06:02:55.008Z,4
2017-04-08T06:03:54.946Z,4
2017-04-08T06:04:54.886Z,4
2017-04-08T06:05:54.819Z,4
2017-04-08T06:06:54.453Z,8
2017-04-08T06:07:54.694Z,4
2017-04-08T06:08:54.639Z,4
2017-04-08T06:09:54.578Z,4
2017-04-08T06:10:54.509Z,8
2017-04-08T06:11:54.447Z,8
2017-04-08T06:12:54.397Z,8
2017-04-08T06:13:54.323Z,8
2017-04-08T06:14:54.256Z,8
2017-04-08T06:15:54.198Z,8
2017-04-08T06:16:54.134Z,8
2017-04-08T06:17:54.066Z,8
2017-04-08T06:18:54.015Z,8
2017-04-08T06:19:53.941Z,8
2017-04-08T06:20:53.884Z,8
2017-04-08T06:21:53.817Z,8
2017-04-08T06:22:53.757Z,8
2017-04-08T06:23:53.690Z,12
2017-04-08T06:24:53.330Z,12
2017-04-08T06:25:53.269Z,8
2017-04-08T06:26:53.502Z,8
2017-04-08T06:27:53.472Z,12
2017-04-08T06:28:53.386Z,8
2017-04-08T06:29:53.321Z,12
2017-04-08T06:30:53.253Z,12
2017-04-08T06:31:53.191Z,8
2017-04-08T06:32:53.129Z,8
2017-04-08T06:33:53.068Z,8
2017-04-08T06:34:53.006Z,12
2017-04-08T06:35:52.943Z,8
2017-04-08T06:36:52.878Z,12
2017-04-08T06:37:52.526Z,8
2017-04-08T06:38:52.752Z,8
2017-04-08T06:39:52.691Z,8
2017-04-08T06:40:52.635Z,8
2017-04-08T06:41:52.567Z,8
2017-04-08T06:42:52.501Z,8
2017-04-08T06:43:52.449Z,8
2017-04-08T06:44:52.382Z,4
2017-04-08T06:45:52.317Z,8
2017-04-08T06:46:52.296Z,4
2017-04-08T06:47:52.190Z,8
2017-04-08T06:48:52.128Z,4
2017-04-08T06:49:52.064Z,8
2017-04-08T06:50:52.000Z,4
2017-04-08T06:51:51.638Z,4
2017-04-08T06:52:51.879Z,8
2017-04-08T06:53:51.815Z,8
2017-04-08T06:54:51.750Z,8
2017-04-08T06:55:51.723Z,8
2017-04-08T06:56:51.625Z,4
2017-04-08T06:57:51.261Z,8
2017-04-08T06:58:51.500Z,8
2017-04-08T06:59:51.454Z,8
2017-04-08T07:00:51.369Z,8
2017-04-08T07:01:51.310Z,4
2017-04-08T07:02:51.252Z,8
2017-04-08T07:03:51.182Z,8
2017-04-08T07:04:51.121Z,8
2017-04-08T07:05:51.063Z,8
2017-04-08T07:06:50.996Z,4
2017-04-08T07:07:50.938Z,8
2017-04-08T07:08:50.887Z,8
2017-04-08T07:09:50.810Z,4
2017-04-08T07:10:50.752Z,4
2017-04-08T07:11:50.685Z,8
2017-04-08T07:12:50.626Z,8
2017-04-08T07:13:50.555Z,4
2017-04-08T07:14:50.492Z,8
2017-04-08T07:15:50.436Z,8
2017-04-08T07:16:50.376Z,8
2017-04-08T07:17:50.002Z,12
2017-04-08T07:18:50.248Z,8
2017-04-08T07:19:50.183Z,12
2017-04-08T07:20:50.129Z,12
2017-04-08T07:21:50.070Z,8
2017-04-08T07:22:50.004Z,8
2017-04-08T07:23:49.938Z,8
2017-04-08T07:24:49.870Z,8
2017-04-08T07:25:49.807Z,8
2017-04-08T07:26:49.743Z,12
2017-04-08T07:27:49.687Z,12
2017-04-08T07:28:49.620Z,12
2017-04-08T07:29:49.558Z,12
2017-04-08T07:30:49.491Z,8
2017-04-08T07:31:49.432Z,12
2017-04-08T07:32:49.370Z,16
2017-04-08T07:33:49.297Z,16
2017-04-08T07:34:49.248Z,32
2017-04-08T07:35:49.181Z,12
2017-04-08T07:36:49.117Z,8
2017-04-08T07:37:49.055Z,12
2017-04-08T07:38:48.992Z,20
2017-04-08T07:39:48.930Z,20
2017-04-08T07:40:48.866Z,16
2017-04-08T07:41:48.800Z,16
2017-04-08T07:42:48.757Z,12
2017-04-08T07:43:48.678Z,12
2017-04-08T07:44:48.616Z,20
2017-04-08T07:45:48.567Z,24
2017-04-08T07:46:48.493Z,16
2017-04-08T07:47:48.430Z,16
2017-04-08T07:48:48.063Z,16
2017-04-08T07:49:48.305Z,20
2017-04-08T07:50:48.236Z,16
2017-04-08T07:51:48.177Z,8
2017-04-08T07:52:48.122Z,16
2017-04-08T07:53:48.053Z,16
2017-04-08T07:54:47.989Z,12
2017-04-08T07:55:47.927Z,8
2017-04-08T07:56:47.861Z,8
2017-04-08T07:57:47.807Z,12
2017-04-08T07:58:47.739Z,12
2017-04-08T07:59:47.679Z,12
2017-04-08T08:00:47.615Z,12
2017-04-08T08:01:47.550Z,8
2017-04-08T08:02:47.489Z,16
2017-04-08T08:03:47.430Z,16
2017-04-08T08:04:47.368Z,12
2017-04-08T08:05:47.004Z,12
2017-04-08T08:06:47.238Z,16
2017-04-08T08:07:46.887Z,12
2017-04-08T08:08:47.119Z,16
2017-04-08T08:09:47.050Z,16
2017-04-08T08:10:46.693Z,12
2017-04-08T08:11:46.924Z,16
2017-04-08T08:12:46.863Z,12
2017-04-08T08:13:46.802Z,12
2017-04-08T08:14:46.738Z,12
2017-04-08T08:15:46.674Z,12
2017-04-08T08:16:46.610Z,12
2017-04-08T08:17:46.548Z,12
2017-04-08T08:18:46.494Z,12
2017-04-08T08:19:46.130Z,12
2017-04-08T08:20:46.360Z,12
2017-04-08T08:21:46.295Z,16
2017-04-08T08:22:46.242Z,12
2017-04-08T08:23:46.177Z,16
2017-04-08T08:24:46.117Z,16
2017-04-08T08:25:45.747Z,16
2017-04-08T08:26:45.987Z,16
2017-04-08T08:27:45.921Z,20
2017-04-08T08:28:45.862Z,16
2017-04-08T08:29:45.794Z,16
2017-04-08T08:30:45.739Z,20
2017-04-08T08:31:45.670Z,16
2017-04-08T08:32:45.610Z,16
2017-04-08T08:33:45.552Z,16
2017-04-08T08:34:45.492Z,16
2017-04-08T08:35:45.430Z,20
2017-04-08T08:36:45.354Z,20
2017-04-08T08:37:45.308Z,20
2017-04-08T08:38:45.237Z,16
2017-04-08T08:39:45.170Z,20
2017-04-08T08:40:45.111Z,20
2017-04-08T08:41:45.043Z,24
2017-04-08T08:42:44.983Z,28
2017-04-08T08:43:44.915Z,24
2017-04-08T08:44:44.870Z,28
2017-04-08T08:45:44.797Z,24
2017-04-08T08:46:44.427Z,24
2017-04-08T08:47:44.675Z,28
2017-04-08T08:48:44.611Z,32
2017-04-08T08:49:44.542Z,24
2017-04-08T08:50:44.478Z,28
2017-04-08T08:51:44.418Z,28
2017-04-08T08:52:44.363Z,32
2017-04-08T08:53:44.288Z,28
2017-04-08T08:54:44.222Z,32
2017-04-08T08:55:44.164Z,32
2017-04-08T08:56:44.098Z,36
2017-04-08T08:57:44.051Z,28
2017-04-08T08:58:43.975Z,32
2017-04-08T08:59:43.918Z,24
2017-04-08T09:00:43.853Z,40
2017-04-08T09:01:43.801Z,36
2017-04-08T09:02:43.427Z,44
2017-04-08T09:03:43.665Z,28
2017-04-08T09:04:43.601Z,24
2017-04-08T09:05:43.538Z,24
2017-04-08T09:06:43.477Z,20
2017-04-08T09:07:43.423Z,20
2017-04-08T09:08:43.353Z,24
2017-04-08T09:09:43.283Z,24
2017-04-08T09:10:43.222Z,48
2017-04-08T09:11:43.162Z,48
2017-04-08T09:12:43.103Z,20
2017-04-08T09:13:43.036Z,16
2017-04-08T09:14:42.972Z,16
2017-04-08T09:15:42.910Z,16
2017-04-08T09:16:42.858Z,12
2017-04-08T09:17:42.789Z,12
2017-04-08T09:18:42.729Z,12
2017-04-08T09:19:42.656Z,12
2017-04-08T09:20:42.603Z,12
2017-04-08T09:21:42.237Z,12
2017-04-08T09:22:42.168Z,16
2017-04-08T09:23:42.411Z,20
2017-04-08T09:24:42.347Z,16
2017-04-08T09:25:42.286Z,20
2017-04-08T09:26:42.222Z,24
2017-04-08T09:27:42.155Z,24
2017-04-08T09:28:42.098Z,20
2017-04-08T09:29:41.730Z,28
2017-04-08T09:30:41.976Z,24
2017-04-08T09:31:41.607Z,32
2017-04-08T09:32:41.849Z,28
2017-04-08T09:33:41.789Z,24
2017-04-08T09:34:41.725Z,20
2017-04-08T09:35:41.355Z,24
2017-04-08T09:36:41.596Z,20
2017-04-08T09:37:41.537Z,20
2017-04-08T09:38:41.481Z,12
2017-04-08T09:39:41.408Z,12
2017-04-08T09:40:41.039Z,12
2017-04-08T09:41:40.985Z,16
2017-04-08T09:42:41.218Z,16
2017-04-08T09:43:40.861Z,16
2017-04-08T09:44:41.095Z,16
2017-04-08T09:45:41.036Z,16
2017-04-08T09:46:40.966Z,16
2017-04-08T09:47:40.911Z,20
2017-04-08T09:48:40.851Z,16
2017-04-08T09:49:40.774Z,16
2017-04-08T09:50:40.717Z,16
2017-04-08T09:51:40.653Z,16
2017-04-08T09:52:40.295Z,16
2017-04-08T09:53:40.530Z,20
2017-04-08T09:54:40.473Z,24
2017-04-08T09:55:40.402Z,24
2017-04-08T09:56:40.343Z,28
2017-04-08T09:57:40.276Z,32
2017-04-08T09:58:40.222Z,32
2017-04-08T09:59:40.154Z,28
2017-04-08T10:00:40.095Z,28
2017-04-08T10:01:40.028Z,32
2017-04-08T10:02:39.968Z,32
2017-04-08T10:03:39.903Z,28
2017-04-08T10:04:39.860Z,32
2017-04-08T10:05:39.775Z,28
2017-04-08T10:06:39.453Z,24
2017-04-08T10:07:39.660Z,20
2017-04-08T10:08:39.289Z,16
2017-04-08T10:09:39.524Z,20
2017-04-08T10:10:39.162Z,28
2017-04-08T10:11:39.098Z,20
2017-04-08T10:12:39.334Z,20
2017-04-08T10:13:39.273Z,20
2017-04-08T10:14:39.209Z,24
2017-04-08T10:15:39.168Z,28
2017-04-08T10:16:39.084Z,24
2017-04-08T10:17:39.026Z,28
2017-04-08T10:18:38.957Z,44
2017-04-08T10:19:38.898Z,40
2017-04-08T10:20:38.834Z,28
2017-04-08T10:21:38.784Z,28
2017-04-08T10:22:38.707Z,28
2017-04-08T10:23:38.652Z,28
2017-04-08T10:24:38.587Z,36
2017-04-08T10:25:38.523Z,44
2017-04-08T10:26:37.857Z,32
2017-04-08T10:27:38.096Z,28
2017-04-08T10:28:38.343Z,20
2017-04-08T10:29:38.279Z,28
2017-04-08T10:30:38.207Z,32
2017-04-08T10:31:38.150Z,32
2017-04-08T10:32:37.780Z,32
2017-04-08T10:33:37.715Z,28
2017-04-08T10:34:37.657Z,28
2017-04-08T10:35:37.892Z,28
2017-04-08T10:36:37.832Z,24
2017-04-08T10:37:37.779Z,20
2017-04-08T10:38:37.399Z,16
2017-04-08T10:39:37.641Z,16
2017-04-08T10:40:37.578Z,24
2017-04-08T10:41:37.517Z,24
2017-04-08T10:42:37.160Z,28
2017-04-08T10:43:37.394Z,28
2017-04-08T10:44:37.333Z,32
2017-04-08T10:45:37.264Z,28
2017-04-08T10:46:37.202Z,32
2017-04-08T10:47:37.143Z,36
2017-04-08T10:48:37.076Z,32
2017-04-08T10:49:36.717Z,36
2017-04-08T10:50:36.650Z,32
2017-04-08T10:51:36.887Z,28
2017-04-08T10:52:36.828Z,28
2017-04-08T10:53:36.766Z,28
2017-04-08T10:54:36.707Z,24
2017-04-08T10:55:36.637Z,32
2017-04-08T10:56:36.574Z,28
2017-04-08T10:57:35.916Z,24
2017-04-08T10:58:36.150Z,24
2017-04-08T10:59:36.401Z,24
2017-04-08T11:00:36.553Z,20
2017-04-08T11:01:35.966Z,24
2017-04-08T11:02:36.197Z,24
2017-04-08T11:03:36.138Z,28
2017-04-08T11:04:36.074Z,40
2017-04-08T11:05:36.010Z,24
2017-04-08T11:06:35.956Z,24
2017-04-08T11:07:35.891Z,36
2017-04-08T11:08:35.524Z,24
2017-04-08T11:09:35.493Z,32
2017-04-08T11:10:35.701Z,40
2017-04-08T11:11:35.639Z,40
2017-04-08T11:12:35.574Z,36
2017-04-08T11:13:35.552Z,44
2017-04-08T11:14:35.449Z,44
2017-04-08T11:15:35.395Z,40
2017-04-08T11:16:35.325Z,28
2017-04-08T11:17:35.260Z,28
2017-04-08T11:18:34.900Z,44
2017-04-08T11:19:34.835Z,40
2017-04-08T11:20:34.768Z,28
2017-04-08T11:21:34.408Z,24
2017-04-08T11:22:34.959Z,28
2017-04-08T11:23:34.594Z,24
2017-04-08T11:24:34.826Z,28
2017-04-08T11:25:34.769Z,32
2017-04-08T11:26:34.702Z,32
2017-04-08T11:27:34.633Z,32
2017-04-08T11:28:34.578Z,24
2017-04-08T11:29:34.520Z,36
2017-04-08T11:30:34.444Z,20
2017-04-08T11:31:34.384Z,20
2017-04-08T11:32:34.331Z,20
2017-04-08T11:33:34.262Z,44
2017-04-08T11:34:34.198Z,20
2017-04-08T11:35:34.137Z,32
2017-04-08T11:36:34.073Z,24
2017-04-08T11:37:34.014Z,20
2017-04-08T11:38:33.950Z,20
2017-04-08T11:39:33.889Z,24
2017-04-08T11:40:33.823Z,20
2017-04-08T11:41:33.755Z,24
2017-04-08T11:42:33.691Z,44
2017-04-08T11:43:33.631Z,44
2017-04-08T11:44:33.576Z,40
2017-04-08T11:45:33.520Z,44
2017-04-08T11:46:33.443Z,44
2017-04-08T11:47:33.391Z,48
2017-04-08T11:48:33.022Z,28
2017-04-08T11:49:33.256Z,44
2017-04-08T11:50:33.194Z,48
2017-04-08T11:51:32.836Z,48
2017-04-08T11:52:33.067Z,44
2017-04-08T11:53:33.006Z,44
2017-04-08T11:54:32.946Z,44
2017-04-08T11:55:32.582Z,48
2017-04-08T11:56:32.516Z,52
2017-04-08T11:57:32.452Z,56
2017-04-08T11:58:32.696Z,60
2017-04-08T11:59:32.326Z,64
2017-04-08T12:00:32.568Z,68
2017-04-08T12:01:32.214Z,72
2017-04-08T12:02:32.162Z,36
2017-04-08T12:03:32.385Z,24
2017-04-08T12:04:32.020Z,28
2017-04-08T12:05:32.261Z,32
2017-04-08T12:06:32.193Z,28
2017-04-08T12:07:31.824Z,80
2017-04-08T12:08:31.766Z,76
2017-04-08T12:09:32.004Z,72
2017-04-08T12:10:31.976Z,32
2017-04-08T12:11:31.881Z,32
2017-04-08T12:12:31.813Z,44
2017-04-08T12:13:31.752Z,64
2017-04-08T12:14:31.692Z,40
2017-04-08T12:15:31.632Z,60
2017-04-08T12:16:31.606Z,64
2017-04-08T12:17:31.504Z,52
2017-04-08T12:18:31.442Z,56
2017-04-08T12:19:31.373Z,48
2017-04-08T12:20:31.313Z,44
2017-04-08T12:21:31.257Z,40
2017-04-08T12:22:31.197Z,40
2017-04-08T12:23:31.124Z,40
2017-04-08T12:24:31.061Z,36
2017-04-08T12:25:31.001Z,36
2017-04-08T12:26:30.941Z,36
2017-04-08T12:27:30.878Z,32
2017-04-08T12:28:30.827Z,36
2017-04-08T12:29:30.749Z,24
2017-04-08T12:30:30.385Z,36
2017-04-08T12:31:30.627Z,24
2017-04-08T12:32:30.261Z,20
2017-04-08T12:33:30.198Z,20
2017-04-08T12:34:30.447Z,20
2017-04-08T12:35:30.372Z,20
2017-04-08T12:36:30.311Z,20
2017-04-08T12:37:30.252Z,20
2017-04-08T12:38:30.189Z,20
2017-04-08T12:39:30.130Z,16
2017-04-08T12:40:30.061Z,16
2017-04-08T12:41:30.001Z,20
2017-04-08T12:42:29.936Z,32
2017-04-08T12:43:29.877Z,24
2017-04-08T12:44:29.814Z,24
2017-04-08T12:45:29.759Z,28
2017-04-08T12:46:29.696Z,20
2017-04-08T12:47:29.623Z,20
2017-04-08T12:48:29.570Z,24
2017-04-08T12:49:29.496Z,36
2017-04-08T12:50:29.437Z,28
2017-04-08T12:51:29.374Z,20
2017-04-08T12:52:29.309Z,24
2017-04-08T12:53:29.249Z,24
2017-04-08T12:54:29.203Z,20
2017-04-08T12:55:29.135Z,16
2017-04-08T12:56:29.061Z,16
2017-04-08T12:57:28.999Z,12
2017-04-08T12:58:28.929Z,12
2017-04-08T12:59:28.872Z,12
2017-04-08T13:00:28.913Z,12
2017-04-08T13:01:28.744Z,12
2017-04-08T13:02:28.682Z,12
2017-04-08T13:03:28.628Z,12
2017-04-08T13:04:28.565Z,12
2017-04-08T13:05:28.197Z,8
2017-04-08T13:06:28.138Z,8
2017-04-08T13:07:28.385Z,12
2017-04-08T13:08:28.010Z,8
2017-04-08T13:09:28.244Z,8
2017-04-08T13:10:28.187Z,8
2017-04-08T13:11:28.121Z,8
2017-04-08T13:12:27.762Z,4
2017-04-08T13:13:28.004Z,4
2017-04-08T13:14:27.932Z,4
2017-04-08T13:15:27.882Z,4
2017-04-08T13:16:27.807Z,4
2017-04-08T13:17:27.747Z,4
2017-04-08T13:18:27.381Z,4
2017-04-08T13:19:27.630Z,4
2017-04-08T13:20:27.560Z,4
2017-04-08T13:21:27.498Z,4
2017-04-08T13:22:27.473Z,4
2017-04-08T13:23:27.380Z,4
2017-04-08T13:24:27.311Z,4
2017-04-08T13:25:27.280Z,4
2017-04-08T13:26:27.181Z,4
2017-04-08T13:27:27.123Z,4
2017-04-08T13:28:27.097Z,0
2017-04-08T13:29:27.004Z,4
2017-04-08T13:30:26.927Z,4
2017-04-08T13:31:26.870Z,4
2017-04-08T13:32:26.801Z,4
2017-04-08T13:33:26.752Z,4
2017-04-08T13:34:26.681Z,4
2017-04-08T13:35:26.616Z,4
2017-04-08T13:36:26.560Z,4
2017-04-08T13:37:26.195Z,4
2017-04-08T13:38:26.434Z,4
2017-04-08T13:39:26.372Z,4
2017-04-08T13:40:26.309Z,4
2017-04-08T13:41:26.257Z,4
2017-04-08T13:42:26.180Z,4
2017-04-08T13:43:26.122Z,4
2017-04-08T13:44:26.049Z,8
2017-04-08T13:45:25.992Z,8
2017-04-08T13:46:25.934Z,8
2017-04-08T13:47:25.906Z,8
2017-04-08T13:48:25.805Z,8
2017-04-08T13:49:25.741Z,8
2017-04-08T13:50:25.680Z,8
2017-04-08T13:51:25.619Z,8
2017-04-08T13:52:25.555Z,8
2017-04-08T13:53:25.495Z,8
2017-04-08T13:54:25.125Z,4
2017-04-08T13:55:25.365Z,8
2017-04-08T13:56:25.306Z,8
2017-04-08T13:57:25.244Z,8
2017-04-08T13:58:25.179Z,12
2017-04-08T13:59:25.119Z,12
2017-04-08T14:00:25.059Z,12
2017-04-08T14:01:24.991Z,12
2017-04-08T14:02:24.930Z,8
2017-04-08T14:03:24.567Z,4
2017-04-08T14:04:24.504Z,8
2017-04-08T14:05:24.434Z,8
2017-04-08T14:06:24.680Z,8
2017-04-08T14:07:24.618Z,4
2017-04-08T14:08:24.564Z,4
2017-04-08T14:09:24.495Z,8
2017-04-08T14:10:24.424Z,8
2017-04-08T14:11:24.403Z,8
2017-04-08T14:12:24.000Z,8
2017-04-08T14:13:24.244Z,4
2017-04-08T14:14:24.175Z,4
2017-04-08T14:15:23.814Z,8
2017-04-08T14:16:24.051Z,8
2017-04-08T14:17:23.692Z,8
2017-04-08T14:18:23.925Z,8
2017-04-08T14:19:23.865Z,4
2017-04-08T14:20:23.503Z,8
2017-04-08T14:21:23.738Z,8
2017-04-08T14:22:23.675Z,8
2017-04-08T14:23:23.614Z,8
2017-04-08T14:24:23.302Z,12
2017-04-08T14:25:23.490Z,8
2017-04-08T14:26:23.433Z,8
2017-04-08T14:27:23.365Z,8
2017-04-08T14:28:23.304Z,8
2017-04-08T14:29:23.251Z,8
2017-04-08T14:30:23.177Z,4
2017-04-08T14:31:23.110Z,4
2017-04-08T14:32:23.063Z,4
2017-04-08T14:33:22.994Z,4
2017-04-08T14:34:22.927Z,4